Terminal Aerodrome Forecast
Issued by NWS

Home | Current Version | Previous Version | Text Only | Print | Product List | Glossary On
Versions: 1 2 3 4 5 6 7 8 9 10 11 12 13 14 15 16 17 18 19 20 21
000
FTUS42 KGSP 251700
TAFGMU
TAF
KGMU 251737Z 2518/2618 06006KT P6SM BKN035
     FM252000 13005KT P6SM SCT035
     FM260200 12003KT P6SM SCT250
     FM261500 25006KT P6SM FEW035=

USA.gov is the U.S. government's official web portal to all federal, state and local government web resources and services.